createdAt,value
2019-03-16T00:03:06.669Z,3
2019-03-16T00:07:53.906Z,3
2019-03-16T00:12:41.027Z,3
2019-03-16T00:17:28.205Z,2.9
2019-03-16T00:22:15.609Z,2.9
2019-03-16T00:27:03.147Z,2.9
2019-03-16T00:31:49.851Z,2.9
2019-03-16T00:36:36.791Z,2.9
2019-03-16T00:41:23.917Z,2.9
2019-03-16T00:46:10.702Z,2.9
2019-03-16T00:50:58.053Z,2.9
2019-03-16T00:55:45.517Z,2.9
2019-03-16T01:00:32.724Z,2.8
2019-03-16T01:05:19.741Z,2.8
2019-03-16T01:10:07.569Z,2.8
2019-03-16T01:14:54.943Z,2.8
2019-03-16T01:19:41.605Z,2.8
2019-03-16T01:24:29.137Z,2.8
2019-03-16T01:29:16.937Z,2.8
2019-03-16T01:34:03.928Z,2.8
2019-03-16T01:38:50.948Z,2.7
2019-03-16T01:43:37.857Z,2.7
2019-03-16T01:48:25.625Z,2.7
2019-03-16T01:53:12.440Z,2.7
2019-03-16T01:57:59.511Z,2.7
2019-03-16T02:02:54.780Z,2.7
2019-03-16T02:07:42.139Z,2.7
2019-03-16T02:12:29.239Z,2.7
2019-03-16T02:17:18.267Z,2.7
2019-03-16T02:22:06.647Z,2.7
2019-03-16T02:26:53.761Z,2.7
2019-03-16T02:31:41.013Z,2.6
2019-03-16T02:36:28.655Z,2.6
2019-03-16T02:41:17.019Z,2.6
2019-03-16T02:46:03.827Z,2.6
2019-03-16T02:50:50.910Z,2.6
2019-03-16T02:55:38.759Z,2.6
2019-03-16T03:00:26.097Z,2.6
2019-03-16T03:05:13.074Z,2.6
2019-03-16T03:10:00.729Z,2.6
2019-03-16T03:14:47.933Z,2.6
2019-03-16T03:19:34.885Z,2.6
2019-03-16T03:24:23.755Z,2.6
2019-03-16T03:29:13.124Z,2.6
2019-03-16T03:34:02.217Z,2.6
2019-03-16T03:38:50.603Z,2.5
2019-03-16T03:43:37.765Z,2.5
2019-03-16T03:48:25.599Z,2.5
2019-03-16T03:53:14.774Z,2.5
2019-03-16T03:58:01.871Z,2.5
2019-03-16T04:02:49.004Z,2.5
2019-03-16T04:07:36.738Z,2.5
2019-03-16T04:12:54.508Z,2.5
2019-03-16T04:17:41.465Z,2.5
2019-03-16T04:22:29.244Z,2.5
2019-03-16T04:27:16.891Z,2.5
2019-03-16T04:32:04.528Z,2.5
2019-03-16T04:36:52.380Z,2.5
2019-03-16T04:41:40.678Z,2.5
2019-03-16T04:46:31.298Z,2.5
2019-03-16T04:51:18.417Z,2.5
2019-03-16T04:59:11.703Z,2.5
2019-03-16T05:03:59.639Z,2.5
2019-03-16T05:08:46.674Z,2.4
2019-03-16T05:13:33.622Z,2.4
2019-03-16T05:18:20.350Z,2.4
2019-03-16T05:23:08.425Z,2.4
2019-03-16T05:27:56.910Z,2.4
2019-03-16T05:32:43.782Z,2.4
2019-03-16T05:37:31.087Z,2.4
2019-03-16T05:42:18.161Z,2.4
2019-03-16T05:50:12.661Z,2.4
2019-03-16T05:55:00.004Z,2.4
2019-03-16T05:59:48.202Z,2.4
2019-03-16T06:04:35.567Z,2.4
2019-03-16T06:10:40.195Z,2.4
2019-03-16T06:15:29.051Z,2.4
2019-03-16T06:20:16.560Z,2.4
2019-03-16T06:25:03.384Z,2.4
2019-03-16T06:31:24.503Z,2.4
2019-03-16T06:36:12.212Z,2.4
2019-03-16T06:40:59.547Z,2.4
2019-03-16T06:45:46.688Z,2.4
2019-03-16T06:50:33.497Z,2.4
2019-03-16T06:55:20.669Z,2.4
2019-03-16T07:00:07.757Z,2.4
2019-03-16T07:07:13.034Z,2.4
2019-03-16T07:12:00.359Z,2.4
2019-03-16T07:16:47.347Z,2.4
2019-03-16T07:21:34.628Z,2.4
2019-03-16T07:27:26.154Z,2.4
2019-03-16T07:32:14.008Z,2.4
2019-03-16T07:36:29.343Z,2.4
2019-03-16T07:39:26.300Z,2.4
2019-03-16T07:47:45.362Z,2.4
2019-03-16T07:51:43.012Z,2.4
2019-03-16T07:58:34.281Z,2.4
2019-03-16T08:08:21.821Z,2.4
2019-03-16T08:12:20.193Z,2.4
2019-03-16T08:17:01.633Z,2.4
2019-03-16T08:20:54.330Z,2.4
2019-03-16T08:22:54.171Z,2.4
2019-03-16T08:28:17.885Z,2.4
2019-03-16T08:37:56.010Z,2.4
2019-03-16T08:42:42.808Z,2.5
2019-03-16T08:47:31.485Z,2.5
2019-03-16T08:52:35.621Z,2.5
2019-03-16T08:57:23.087Z,2.5
2019-03-16T09:02:09.964Z,2.5
2019-03-16T09:06:57.730Z,2.5
2019-03-16T09:11:45.162Z,2.5
2019-03-16T09:16:32.360Z,2.5
2019-03-16T09:21:19.362Z,2.5
2019-03-16T09:26:06.192Z,2.5
2019-03-16T09:30:53.166Z,2.5
2019-03-16T09:35:42.172Z,2.5
2019-03-16T09:40:29.480Z,2.5
2019-03-16T09:45:16.460Z,2.5
2019-03-16T09:50:03.661Z,2.5
2019-03-16T09:54:52.644Z,2.5
2019-03-16T09:59:41.929Z,2.5
2019-03-16T10:04:29.242Z,2.5
2019-03-16T10:09:16.159Z,2.5
2019-03-16T10:14:04.034Z,2.5
2019-03-16T10:30:16.825Z,2.5
2019-03-16T10:35:03.931Z,2.5
2019-03-16T10:39:51.248Z,2.5
2019-03-16T10:44:38.011Z,2.5
2019-03-16T10:49:25.516Z,2.5
2019-03-16T10:54:12.408Z,2.5
2019-03-16T10:58:59.596Z,2.5
2019-03-16T11:03:47.846Z,2.5
2019-03-16T11:08:34.852Z,2.5
2019-03-16T11:13:23.194Z,2.5
2019-03-16T11:18:10.309Z,2.5
2019-03-16T11:22:57.039Z,2.5
2019-03-16T11:27:43.847Z,2.5
2019-03-16T11:32:30.824Z,2.5
2019-03-16T11:37:18.905Z,2.5
2019-03-16T11:42:06.002Z,2.5
2019-03-16T11:46:53.005Z,2.5
2019-03-16T11:51:40.406Z,2.5
2019-03-16T11:56:28.060Z,2.5
2019-03-16T12:01:16.926Z,2.5
2019-03-16T12:06:04.648Z,2.5
2019-03-16T12:10:52.302Z,2.5
2019-03-16T12:15:39.619Z,2.5
2019-03-16T12:20:26.600Z,2.5
2019-03-16T12:25:15.537Z,2.5
2019-03-16T12:30:03.641Z,2.5
2019-03-16T12:34:51.370Z,2.5
2019-03-16T12:39:38.264Z,2.5
2019-03-16T12:44:25.063Z,2.5
2019-03-16T12:49:12.356Z,2.5
2019-03-16T12:53:59.244Z,2.5
2019-03-16T12:58:46.901Z,2.5
2019-03-16T13:03:34.207Z,2.5
2019-03-16T13:08:21.266Z,2.5
2019-03-16T13:13:08.039Z,2.5
2019-03-16T13:17:54.935Z,2.5
2019-03-16T13:22:41.836Z,2.5
2019-03-16T13:27:29.826Z,2.5
2019-03-16T13:32:16.956Z,2.5
2019-03-16T13:37:03.854Z,2.5
2019-03-16T13:41:50.833Z,2.5
2019-03-16T13:46:37.611Z,2.5
2019-03-16T13:51:26.797Z,2.5
2019-03-16T13:56:14.009Z,2.5
2019-03-16T14:01:01.118Z,2.5
2019-03-16T14:05:48.187Z,2.5
2019-03-16T14:10:36.204Z,2.5
2019-03-16T14:15:24.486Z,2.5
2019-03-16T14:20:11.904Z,2.5
2019-03-16T14:24:58.706Z,2.5
2019-03-16T14:29:47.127Z,2.5
2019-03-16T14:34:34.633Z,2.5
2019-03-16T14:39:22.666Z,2.5
2019-03-16T14:44:09.893Z,2.6
2019-03-16T14:48:57.664Z,2.6
2019-03-16T14:53:45.040Z,2.6
2019-03-16T14:58:32.042Z,2.6
2019-03-16T15:03:19.869Z,2.6
2019-03-16T15:08:06.728Z,2.6
2019-03-16T15:12:53.586Z,2.6
2019-03-16T15:17:42.655Z,2.6
2019-03-16T15:22:29.739Z,2.6
2019-03-16T15:27:17.931Z,2.6
2019-03-16T15:32:04.978Z,2.6
2019-03-16T15:36:51.990Z,2.6
2019-03-16T15:41:39.858Z,2.6
2019-03-16T15:46:26.730Z,2.6
2019-03-16T15:51:14.841Z,2.6
2019-03-16T15:56:02.074Z,2.6
2019-03-16T16:00:48.984Z,2.6
2019-03-16T16:05:36.126Z,2.6
2019-03-16T16:10:23.726Z,2.6
2019-03-16T16:15:11.125Z,2.6
2019-03-16T16:19:58.008Z,2.6
2019-03-16T16:24:45.047Z,2.6
2019-03-16T16:29:32.230Z,2.6
2019-03-16T16:34:19.758Z,2.6
2019-03-16T16:39:07.198Z,2.6
2019-03-16T16:43:56.199Z,2.6
2019-03-16T16:48:43.509Z,2.6
2019-03-16T16:53:30.373Z,2.6
2019-03-16T16:58:17.225Z,2.6
2019-03-16T17:03:05.084Z,2.6
2019-03-16T17:07:52.379Z,2.6
2019-03-16T17:12:39.860Z,2.6
2019-03-16T17:17:35.068Z,2.6
2019-03-16T17:23:09.304Z,2.6
2019-03-16T17:27:56.863Z,2.6
2019-03-16T17:32:44.266Z,2.6
2019-03-16T17:37:32.015Z,2.5
2019-03-16T17:42:19.549Z,2.5
2019-03-16T17:47:06.408Z,2.5
2019-03-16T17:51:54.285Z,2.5
2019-03-16T17:56:41.474Z,2.5
2019-03-16T18:01:28.471Z,2.5
2019-03-16T18:06:15.351Z,2.5
2019-03-16T18:11:49.770Z,2.5
2019-03-16T18:16:37.705Z,2.5
2019-03-16T18:21:24.892Z,2.5
2019-03-16T18:26:13.927Z,2.5
2019-03-16T18:34:13.267Z,2.5
2019-03-16T18:39:00.482Z,2.5
2019-03-16T18:43:47.385Z,2.5
2019-03-16T18:48:35.033Z,2.5
2019-03-16T18:57:37.430Z,2.5
2019-03-16T19:02:25.119Z,2.5
2019-03-16T19:07:12.518Z,2.6
2019-03-16T19:11:59.394Z,2.6
2019-03-16T19:20:36.517Z,2.6
2019-03-16T19:25:24.740Z,2.6
2019-03-16T19:30:12.110Z,2.7
2019-03-16T19:34:58.963Z,2.7
2019-03-16T19:41:51.428Z,2.7
2019-03-16T19:46:39.114Z,2.8
2019-03-16T19:51:25.930Z,2.8
2019-03-16T19:56:12.955Z,2.8
2019-03-16T20:03:52.645Z,2.8
2019-03-16T20:08:41.602Z,2.9
2019-03-16T20:13:28.913Z,2.9
2019-03-16T20:22:45.894Z,3
2019-03-16T20:27:33.154Z,3
2019-03-16T20:32:20.381Z,3.1
2019-03-16T20:37:07.200Z,3.1
2019-03-16T20:44:45.393Z,3.2
2019-03-16T20:49:32.450Z,3.3
2019-03-16T20:54:19.392Z,3.3
2019-03-16T21:03:36.740Z,3.4
2019-03-16T21:08:24.398Z,3.5
2019-03-16T21:13:11.296Z,3.5
2019-03-16T21:20:19.961Z,3.6
2019-03-16T21:25:07.869Z,3.6
2019-03-16T21:29:55.114Z,3.7
2019-03-16T21:37:07.882Z,3.7
2019-03-16T21:41:55.992Z,3.7
2019-03-16T21:46:44.011Z,3.8
2019-03-16T21:53:52.538Z,3.8
2019-03-16T21:58:39.424Z,3.9
2019-03-16T22:03:26.788Z,3.9
2019-03-16T22:11:52.627Z,4
2019-03-16T22:16:39.683Z,4
2019-03-16T22:21:26.578Z,4.1
2019-03-16T22:26:14.224Z,4.1
2019-03-16T22:32:03.927Z,4.2
2019-03-16T22:36:50.775Z,4.2
2019-03-16T22:41:39.676Z,4.3
2019-03-16T22:49:02.489Z,4.3
2019-03-16T22:53:49.977Z,4.4
2019-03-16T22:58:37.162Z,4.4
2019-03-16T23:04:41.883Z,4.5
2019-03-16T23:09:29.091Z,4.5
2019-03-16T23:14:16.803Z,4.6
2019-03-16T23:19:19.261Z,4.6
2019-03-16T23:24:06.677Z,4.7
2019-03-16T23:34:18.324Z,4.7
2019-03-16T23:39:06.274Z,4.8
2019-03-16T23:43:54.111Z,4.8
2019-03-16T23:48:56.514Z,4.8
2019-03-16T23:53:43.386Z,4.9
2019-03-16T23:58:30.570Z,4.9
